Newburg Corners, Wisconsin
Current Conditions -  °F | °C
As of 4:53 PM on Saturday 20 Dec 2014 (Local Time) from KLSE Reporting Station
Overcast Overcast  
Wind Chill: -2°   Ceiling: 1200
Heat Index:   Visibility: 7mi
Dew Point: -2°   Wind: 5mph
Humidity: 82%   Direction: 180°S
Pressure: 30.18"   Gusts: NA
Location:  43.8385°N, 90.9811°W
Report Text: KLSE 202253Z 18004KT 7SM OVC012 01/M02 A3018 RMK AO2 SLP231 T00061022
Loading
Personal Weather Stations






























Interactive Weather Map New forecast layout! Learn more

10-Day Weather Forecast

Advertisements
Track Severe Weather on mobile